createdAt,value
2023-01-11T00:01:37.645Z,14.82
2023-01-11T00:04:07.197Z,14.85
2023-01-11T00:06:35.169Z,14.84
2023-01-11T00:09:03.249Z,14.81
2023-01-11T00:11:33.850Z,14.82
2023-01-11T00:14:01.967Z,14.85
2023-01-11T00:16:30.290Z,14.84
2023-01-11T00:18:58.323Z,14.85
2023-01-11T00:21:28.033Z,14.81
2023-01-11T00:23:56.099Z,14.81
2023-01-11T00:26:26.493Z,14.76
2023-01-11T00:28:54.766Z,14.76
2023-01-11T00:31:33.117Z,14.72
2023-01-11T00:34:01.441Z,14.71
2023-01-11T00:36:30.966Z,14.70
2023-01-11T00:38:59.112Z,14.70
2023-01-11T00:41:44.110Z,14.73
2023-01-11T00:44:30.176Z,14.63
2023-01-11T00:47:16.578Z,14.63
2023-01-11T00:49:44.897Z,14.62
2023-01-11T00:52:14.425Z,14.64
2023-01-11T00:54:43.679Z,14.67
2023-01-11T00:57:11.889Z,14.66
2023-01-11T00:59:40.742Z,14.71
2023-01-11T01:02:10.417Z,14.73
2023-01-11T01:04:39.343Z,14.78
2023-01-11T01:07:08.814Z,14.83
2023-01-11T01:09:39.076Z,14.91
2023-01-11T01:12:09.483Z,14.91
2023-01-11T01:14:36.809Z,14.97
2023-01-11T01:17:08.117Z,14.94
2023-01-11T01:19:37.910Z,15.01
2023-01-11T01:22:09.266Z,15.03
2023-01-11T01:24:39.215Z,14.99
2023-01-11T01:27:07.299Z,14.97
2023-01-11T01:29:35.330Z,14.91
2023-01-11T01:32:03.376Z,14.87
2023-01-11T01:34:31.728Z,14.81
2023-01-11T01:36:59.719Z,14.81
2023-01-11T01:39:28.076Z,14.78
2023-01-11T01:41:57.615Z,14.74
2023-01-11T01:44:58.224Z,14.65
2023-01-11T01:47:30.984Z,14.70
2023-01-11T01:50:00.290Z,14.66
2023-01-11T01:52:29.412Z,14.62
2023-01-11T01:55:03.181Z,14.60
2023-01-11T01:57:35.805Z,14.61
2023-01-11T02:00:07.808Z,14.61
2023-01-11T02:02:38.313Z,14.66
2023-01-11T02:05:08.466Z,14.65
2023-01-11T02:07:40.715Z,14.68
2023-01-11T02:10:11.202Z,14.67
2023-01-11T02:12:43.307Z,14.10
2023-01-11T02:15:12.968Z,13.58
2023-01-11T02:17:41.385Z,13.09
2023-01-11T02:20:33.299Z,12.73
2023-01-11T02:23:44.818Z,12.48
2023-01-11T02:26:40.190Z,12.30
2023-01-11T02:29:17.466Z,12.22
2023-01-11T02:31:52.635Z,12.25
2023-01-11T02:34:33.431Z,12.16
2023-01-11T02:37:12.824Z,12.18
2023-01-11T02:39:53.111Z,12.18
2023-01-11T02:42:44.892Z,12.25
2023-01-11T02:45:22.323Z,12.29
2023-01-11T02:47:55.370Z,12.36
2023-01-11T02:50:30.244Z,12.45
2023-01-11T02:53:01.774Z,12.56
2023-01-11T02:55:36.018Z,12.63
2023-01-11T02:58:07.317Z,12.74
2023-01-11T03:00:39.166Z,12.83
2023-01-11T03:03:10.324Z,12.96
2023-01-11T03:05:45.182Z,13.08
2023-01-11T03:08:31.647Z,13.15
2023-01-11T03:11:06.448Z,13.28
2023-01-11T03:13:46.752Z,13.43
2023-01-11T03:16:24.390Z,13.53
2023-01-11T03:18:59.215Z,13.71
2023-01-11T03:21:39.809Z,13.74
2023-01-11T03:24:16.793Z,13.81
2023-01-11T03:26:54.856Z,13.86
2023-01-11T03:29:30.533Z,13.96
2023-01-11T03:32:11.923Z,14.08
2023-01-11T03:34:46.822Z,14.04
2023-01-11T03:37:21.851Z,14.02
2023-01-11T03:39:57.014Z,13.91
2023-01-11T03:42:28.832Z,13.86
2023-01-11T03:44:58.936Z,13.83
2023-01-11T03:47:32.973Z,13.84
2023-01-11T03:50:06.004Z,13.81
2023-01-11T03:52:38.546Z,13.81
2023-01-11T03:55:10.290Z,13.83
2023-01-11T03:57:43.447Z,13.82
2023-01-11T04:00:17.821Z,13.87
2023-01-11T04:02:47.237Z,13.94
2023-01-11T04:05:15.241Z,14.00
2023-01-11T04:07:43.576Z,14.06
2023-01-11T04:10:12.731Z,14.05
2023-01-11T04:12:40.618Z,14.13
2023-01-11T04:15:10.479Z,14.17
2023-01-11T04:17:38.468Z,14.22
2023-01-11T04:20:10.373Z,14.22
2023-01-11T04:22:38.419Z,14.26
2023-01-11T04:25:09.076Z,14.27
2023-01-11T04:27:37.254Z,14.33
2023-01-11T04:30:06.314Z,14.34
2023-01-11T04:32:34.281Z,14.40
2023-01-11T04:35:02.660Z,14.43
2023-01-11T04:37:32.357Z,14.34
2023-01-11T04:40:00.407Z,14.18
2023-01-11T04:42:27.416Z,14.08
2023-01-11T04:44:55.427Z,14.05
2023-01-11T04:47:25.198Z,14.06
2023-01-11T04:49:53.371Z,14.08
2023-01-11T04:52:21.990Z,14.21
2023-01-11T04:54:52.577Z,14.21
2023-01-11T04:57:20.590Z,14.28
2023-01-11T04:59:48.823Z,14.33
2023-01-11T05:02:17.244Z,14.35
2023-01-11T05:04:45.308Z,14.39
2023-01-11T05:07:13.404Z,14.41
2023-01-11T05:09:41.519Z,14.33
2023-01-11T05:12:10.925Z,14.34
2023-01-11T05:14:38.893Z,14.36
2023-01-11T05:17:06.807Z,14.20
2023-01-11T05:19:34.766Z,14.20
2023-01-11T05:22:02.718Z,14.15
2023-01-11T05:24:30.767Z,14.16
2023-01-11T05:26:58.895Z,14.13
2023-01-11T05:29:28.822Z,14.15
2023-01-11T05:31:57.095Z,14.13
2023-01-11T05:34:25.107Z,14.08
2023-01-11T05:36:53.210Z,14.04
2023-01-11T05:39:23.080Z,14.06
2023-01-11T05:41:51.094Z,14.03
2023-01-11T05:44:37.390Z,14.04
2023-01-11T05:47:06.736Z,14.01
2023-01-11T05:49:34.648Z,14.01
2023-01-11T05:52:02.660Z,14.13
2023-01-11T05:54:30.642Z,14.15
2023-01-11T05:56:59.022Z,14.21
2023-01-11T05:59:27.002Z,14.20
2023-01-11T06:01:55.032Z,14.24
2023-01-11T06:04:24.568Z,14.25
2023-01-11T06:06:52.796Z,14.28
2023-01-11T06:09:20.843Z,14.22
2023-01-11T06:11:50.631Z,14.21
2023-01-11T06:14:18.791Z,14.08
2023-01-11T06:16:47.133Z,14.08
2023-01-11T06:19:15.217Z,14.05
2023-01-11T06:21:45.046Z,14.06
2023-01-11T06:24:13.136Z,14.05
2023-01-11T06:26:41.101Z,13.96
2023-01-11T06:29:09.202Z,13.94
2023-01-11T06:31:37.309Z,13.87
2023-01-11T06:34:05.325Z,13.86
2023-01-11T06:36:33.259Z,13.82
2023-01-11T06:39:03.779Z,13.78
2023-01-11T06:41:32.139Z,13.81
2023-01-11T06:44:00.136Z,13.80
2023-01-11T06:46:29.154Z,13.77
2023-01-11T06:48:57.489Z,13.81
2023-01-11T06:51:25.503Z,13.80
2023-01-11T06:53:53.435Z,13.77
2023-01-11T06:56:23.681Z,13.75
2023-01-11T06:58:52.654Z,13.73
2023-01-11T07:01:20.920Z,13.78
2023-01-11T07:03:49.232Z,13.85
2023-01-11T07:06:17.212Z,13.89
2023-01-11T07:08:45.263Z,14.00
2023-01-11T07:11:13.860Z,14.06
2023-01-11T07:13:43.424Z,14.12
2023-01-11T07:16:11.669Z,14.18
2023-01-11T07:18:39.737Z,14.28
2023-01-11T07:21:08.001Z,14.25
2023-01-11T07:23:36.136Z,14.20
2023-01-11T07:26:04.274Z,14.17
2023-01-11T07:28:32.280Z,14.13
2023-01-11T07:31:01.897Z,14.12
2023-01-11T07:33:29.935Z,14.06
2023-01-11T07:36:00.832Z,14.04
2023-01-11T07:38:29.876Z,13.99
2023-01-11T07:40:57.965Z,13.96
2023-01-11T07:43:24.918Z,13.95
2023-01-11T07:45:54.338Z,13.97
2023-01-11T07:48:27.056Z,13.96
2023-01-11T07:50:56.124Z,14.01
2023-01-11T07:53:26.731Z,14.03
2023-01-11T07:55:56.476Z,14.04
2023-01-11T07:58:24.950Z,14.08
2023-01-11T08:00:53.079Z,14.05
2023-01-11T08:03:21.354Z,14.03
2023-01-11T08:05:52.812Z,14.04
2023-01-11T08:08:21.131Z,14.00
2023-01-11T08:11:10.276Z,14.04
2023-01-11T08:13:54.949Z,14.04
2023-01-11T08:16:23.010Z,14.04
2023-01-11T08:18:51.255Z,14.10
2023-01-11T08:21:21.407Z,14.14
2023-01-11T08:23:49.485Z,14.12
2023-01-11T08:26:18.255Z,14.14
2023-01-11T08:28:46.636Z,14.14
2023-01-11T08:31:15.212Z,14.16
2023-01-11T08:33:43.394Z,14.20
2023-01-11T08:36:13.489Z,14.25
2023-01-11T08:38:43.109Z,14.25
2023-01-11T08:41:11.839Z,14.32
2023-01-11T08:43:39.872Z,14.38
2023-01-11T08:46:08.287Z,14.51
2023-01-11T08:48:36.928Z,14.56
2023-01-11T08:51:05.047Z,14.58
2023-01-11T08:53:33.094Z,14.67
2023-01-11T08:56:02.641Z,14.72
2023-01-11T08:58:30.679Z,14.80
2023-01-11T09:00:59.322Z,14.86
2023-01-11T09:03:28.709Z,14.79
2023-01-11T09:06:00.049Z,14.81
2023-01-11T09:08:29.128Z,14.72
2023-01-11T09:10:59.919Z,14.82
2023-01-11T09:13:29.998Z,14.83
2023-01-11T09:15:59.458Z,14.97
2023-01-11T09:18:27.575Z,15.01
2023-01-11T09:20:56.234Z,14.97
2023-01-11T09:23:24.574Z,14.84
2023-01-11T09:25:56.407Z,14.94
2023-01-11T09:28:24.448Z,14.97
2023-01-11T09:30:55.948Z,14.98
2023-01-11T09:33:24.159Z,15.06
2023-01-11T09:35:53.209Z,15.10
2023-01-11T09:38:21.399Z,15.18
2023-01-11T09:41:00.506Z,15.17
2023-01-11T09:43:31.437Z,15.24
2023-01-11T09:46:08.977Z,15.29
2023-01-11T09:48:43.605Z,15.35
2023-01-11T09:51:15.900Z,15.34
2023-01-11T09:53:49.679Z,15.27
2023-01-11T09:56:25.123Z,15.26
2023-01-11T09:59:09.652Z,15.26
2023-01-11T10:01:46.542Z,15.14
2023-01-11T10:04:33.118Z,15.09
2023-01-11T10:07:19.917Z,14.88
2023-01-11T10:18:30.651Z,13.59
2023-01-11T10:19:33.510Z,12.92
2023-01-11T10:21:58.254Z,12.54
2023-01-11T10:24:30.288Z,12.45
2023-01-11T10:27:06.689Z,12.41
2023-01-11T10:29:51.687Z,12.41
2023-01-11T10:32:34.795Z,12.44
2023-01-11T10:35:41.356Z,12.55
2023-01-11T10:38:41.098Z,12.67
2023-01-11T10:41:26.439Z,12.83
2023-01-11T10:44:05.303Z,12.90
2023-01-11T10:46:39.764Z,13.00
2023-01-11T10:49:26.956Z,13.01
2023-01-11T10:52:00.364Z,13.09
2023-01-11T10:54:35.141Z,13.16
2023-01-11T10:57:29.162Z,13.17
2023-01-11T11:00:18.575Z,13.12
2023-01-11T11:06:17.547Z,13.08
2023-01-11T11:08:52.278Z,13.08
2023-01-11T11:11:23.933Z,13.09
2023-01-11T11:13:58.910Z,13.09
2023-01-11T11:16:42.218Z,13.07
2023-01-11T11:19:13.491Z,13.06
2023-01-11T11:21:43.868Z,13.00
2023-01-11T11:24:22.491Z,12.95
2023-01-11T11:26:59.452Z,13.04
2023-01-11T11:29:30.805Z,13.16
2023-01-11T11:32:03.858Z,13.29
2023-01-11T11:34:32.521Z,13.44
2023-01-11T11:37:02.724Z,13.65
2023-01-11T11:39:36.862Z,13.90
2023-01-11T11:42:08.874Z,14.07
2023-01-11T11:44:36.974Z,14.23
2023-01-11T11:47:06.985Z,14.36
2023-01-11T11:49:37.057Z,14.47
2023-01-11T11:52:08.483Z,14.55
2023-01-11T11:54:43.419Z,14.66
2023-01-11T11:57:28.327Z,14.73
2023-01-11T12:00:04.543Z,14.84
2023-01-11T12:02:35.690Z,14.87
2023-01-11T12:05:27.268Z,14.91
2023-01-11T12:08:03.738Z,15.06
2023-01-11T12:10:36.973Z,15.03
2023-01-11T12:13:05.526Z,14.99
2023-01-11T12:15:40.551Z,15.07
2023-01-11T12:18:25.225Z,15.11
2023-01-11T12:20:53.725Z,15.15
2023-01-11T12:23:24.824Z,15.10
2023-01-11T12:26:26.451Z,15.09
2023-01-11T12:30:02.491Z,15.05
2023-01-11T12:32:58.273Z,15.04
2023-01-11T12:35:59.216Z,15.10
2023-01-11T12:39:05.536Z,15.08
2023-01-11T12:41:59.455Z,15.10
2023-01-11T12:44:46.840Z,15.07
2023-01-11T12:47:59.220Z,14.97
2023-01-11T12:51:14.751Z,14.80
2023-01-11T12:54:05.052Z,14.68
2023-01-11T12:56:52.783Z,14.64
2023-01-11T12:59:41.663Z,14.72
2023-01-11T13:02:28.495Z,14.72
2023-01-11T13:05:14.998Z,14.80
2023-01-11T13:08:22.782Z,14.73
2023-01-11T13:11:03.033Z,14.42
2023-01-11T13:13:46.491Z,14.19
2023-01-11T13:16:19.096Z,13.90
2023-01-11T13:19:27.787Z,13.61
2023-01-11T13:22:30.719Z,13.18
2023-01-11T13:25:06.686Z,12.91
2023-01-11T13:30:42.990Z,12.63
2023-01-11T13:33:18.627Z,12.80
2023-01-11T13:35:52.634Z,12.86
2023-01-11T13:38:35.566Z,13.00
2023-01-11T13:41:14.974Z,12.94
2023-01-11T13:43:48.601Z,12.58
2023-01-11T13:46:26.369Z,12.29
2023-01-11T13:49:01.892Z,12.09
2023-01-11T13:51:38.290Z,11.97
2023-01-11T13:54:14.171Z,11.94
2023-01-11T13:56:44.529Z,12.05
2023-01-11T13:59:18.296Z,12.15
2023-01-11T14:01:55.613Z,12.11
2023-01-11T14:04:31.854Z,12.11
2023-01-11T14:07:11.608Z,12.15
2023-01-11T14:10:21.398Z,12.18
2023-01-11T14:13:06.115Z,12.28
2023-01-11T14:15:47.839Z,12.42
2023-01-11T14:18:30.802Z,12.60
2023-01-11T14:21:25.109Z,12.79
2023-01-11T14:23:55.012Z,12.98
2023-01-11T14:26:41.977Z,13.12
2023-01-11T14:29:28.721Z,13.29
2023-01-11T14:32:17.781Z,13.45
2023-01-11T14:35:05.239Z,13.59
2023-01-11T14:37:58.499Z,13.74
2023-01-11T14:41:08.139Z,13.87
2023-01-11T14:44:11.807Z,13.87
2023-01-11T14:47:07.267Z,13.63
2023-01-11T14:50:05.085Z,13.29
2023-01-11T14:52:40.842Z,13.02
2023-01-11T14:55:17.586Z,12.85
2023-01-11T14:58:00.475Z,12.70
2023-01-11T15:01:20.979Z,12.70
2023-01-11T15:03:57.333Z,12.78
2023-01-11T15:06:25.815Z,12.92
2023-01-11T15:08:56.942Z,13.07
2023-01-11T15:11:36.913Z,13.14
2023-01-11T15:14:25.202Z,13.15
2023-01-11T15:17:13.647Z,13.12
2023-01-11T15:19:44.667Z,13.08
2023-01-11T15:22:29.221Z,12.99
2023-01-11T15:25:22.901Z,13.00
2023-01-11T15:27:51.721Z,12.99
2023-01-11T15:30:39.984Z,12.92
2023-01-11T15:33:32.439Z,12.78
2023-01-11T15:36:06.822Z,12.72
2023-01-11T15:38:38.756Z,12.96
2023-01-11T15:41:33.355Z,12.98
2023-01-11T15:44:19.607Z,13.02
2023-01-11T15:47:16.705Z,13.10
2023-01-11T15:50:18.829Z,13.30
2023-01-11T15:53:18.647Z,13.46
2023-01-11T15:56:18.923Z,13.67
2023-01-11T16:02:51.744Z,14.08
2023-01-11T16:05:25.050Z,14.22
2023-01-11T16:08:02.642Z,14.33
2023-01-11T16:11:04.295Z,14.38
2023-01-11T16:13:57.203Z,14.44
2023-01-11T16:19:21.884Z,14.53
2023-01-11T16:21:56.082Z,14.55
2023-01-11T16:24:39.395Z,14.55
2023-01-11T16:27:57.632Z,14.55
2023-01-11T16:30:28.436Z,14.54
2023-01-11T16:33:22.850Z,14.58
2023-01-11T16:35:51.003Z,14.62
2023-01-11T16:38:22.477Z,14.59
2023-01-11T16:40:54.249Z,14.60
2023-01-11T16:43:26.559Z,14.61
2023-01-11T16:45:55.670Z,14.62
2023-01-11T16:48:26.384Z,14.68
2023-01-11T16:51:03.723Z,14.73
2023-01-11T16:53:33.808Z,14.75
2023-01-11T16:56:05.653Z,14.82
2023-01-11T16:58:35.362Z,14.88
2023-01-11T17:01:05.898Z,14.97
2023-01-11T17:03:37.156Z,15.00
2023-01-11T17:06:26.867Z,14.99
2023-01-11T17:08:57.096Z,15.06
2023-01-11T17:11:30.107Z,15.07
2023-01-11T17:14:22.311Z,15.09
2023-01-11T17:16:52.996Z,15.14
2023-01-11T17:19:25.082Z,15.10
2023-01-11T17:21:54.928Z,15.01
2023-01-11T17:24:26.217Z,15.06
2023-01-11T17:26:57.700Z,15.08
2023-01-11T17:29:30.539Z,15.12
2023-01-11T17:32:00.980Z,15.14
2023-01-11T17:34:32.852Z,15.12
2023-01-11T17:37:02.685Z,15.22
2023-01-11T17:39:34.356Z,15.17
2023-01-11T17:42:23.355Z,15.18
2023-01-11T17:45:11.112Z,15.25
2023-01-11T17:47:40.407Z,15.25
2023-01-11T17:50:21.952Z,15.25
2023-01-11T17:52:57.359Z,15.30
2023-01-11T17:55:29.303Z,15.30
2023-01-11T17:58:19.252Z,15.23
2023-01-11T18:01:10.825Z,15.09
2023-01-11T18:03:43.198Z,14.99
2023-01-11T18:06:15.550Z,14.87
2023-01-11T18:08:49.025Z,14.81
2023-01-11T18:11:24.507Z,14.72
2023-01-11T18:13:54.416Z,14.60
2023-01-11T18:16:23.892Z,14.56
2023-01-11T18:19:05.415Z,14.55
2023-01-11T18:21:51.978Z,14.55
2023-01-11T18:24:35.326Z,14.53
2023-01-11T18:27:18.974Z,14.58
2023-01-11T18:29:49.825Z,14.64
2023-01-11T18:32:18.958Z,14.72
2023-01-11T18:34:50.168Z,14.77
2023-01-11T18:37:20.455Z,14.78
2023-01-11T18:39:48.589Z,14.82
2023-01-11T18:42:19.664Z,14.87
2023-01-11T18:44:49.594Z,14.91
2023-01-11T18:47:20.083Z,14.91
2023-01-11T18:49:48.632Z,14.99
2023-01-11T18:52:17.160Z,15.01
2023-01-11T18:54:46.938Z,15.01
2023-01-11T18:57:14.918Z,15.10
2023-01-11T18:59:43.038Z,15.11
2023-01-11T19:02:24.589Z,15.17
2023-01-11T19:04:54.309Z,15.14
2023-01-11T19:07:23.337Z,15.05
2023-01-11T19:09:54.926Z,14.92
2023-01-11T19:12:23.139Z,14.89
2023-01-11T19:14:51.348Z,14.79
2023-01-11T19:17:19.697Z,14.77
2023-01-11T19:19:47.582Z,14.75
2023-01-11T19:22:15.954Z,14.67
2023-01-11T19:24:43.950Z,14.72
2023-01-11T19:27:14.200Z,14.67
2023-01-11T19:29:42.452Z,14.72
2023-01-11T19:32:10.989Z,14.76
2023-01-11T19:34:39.905Z,14.79
2023-01-11T19:37:08.212Z,14.80
2023-01-11T19:39:36.713Z,14.87
2023-01-11T19:42:04.697Z,14.84
2023-01-11T19:44:35.448Z,14.96
2023-01-11T19:47:11.300Z,14.94
2023-01-11T19:49:41.104Z,14.98
2023-01-11T19:52:13.163Z,15.13
2023-01-11T19:54:42.980Z,15.16
2023-01-11T19:57:11.593Z,15.15
2023-01-11T19:59:41.309Z,15.24
2023-01-11T20:02:11.109Z,15.22
2023-01-11T20:04:38.998Z,15.30
2023-01-11T20:07:07.280Z,15.40
2023-01-11T20:09:37.616Z,15.40
2023-01-11T20:12:05.945Z,15.41
2023-01-11T20:14:34.105Z,15.39
2023-01-11T20:17:03.778Z,15.42
2023-01-11T20:19:31.873Z,15.49
2023-01-11T20:21:59.818Z,15.49
2023-01-11T20:24:30.112Z,15.52
2023-01-11T20:26:59.788Z,15.50
2023-01-11T20:29:27.882Z,15.57
2023-01-11T20:31:58.204Z,15.58
2023-01-11T20:34:32.495Z,15.44
2023-01-11T20:37:00.453Z,15.45
2023-01-11T20:39:28.542Z,15.39
2023-01-11T20:41:56.795Z,15.27
2023-01-11T20:44:28.092Z,15.16
2023-01-11T20:46:57.291Z,15.05
2023-01-11T20:49:27.713Z,15.02
2023-01-11T20:51:57.625Z,14.91
2023-01-11T20:54:25.738Z,14.95
2023-01-11T20:56:54.125Z,14.87
2023-01-11T20:59:22.101Z,14.88
2023-01-11T21:01:51.817Z,14.87
2023-01-11T21:04:20.052Z,14.79
2023-01-11T21:06:49.480Z,14.76
2023-01-11T21:09:20.013Z,14.76
2023-01-11T21:14:36.949Z,14.83
2023-01-11T21:17:05.335Z,14.84
2023-01-11T21:19:47.883Z,14.80
2023-01-11T21:22:16.076Z,14.77
2023-01-11T21:24:48.623Z,14.75
2023-01-11T21:27:19.394Z,14.75
2023-01-11T21:29:56.828Z,14.71
2023-01-11T21:32:26.501Z,14.68
2023-01-11T21:34:54.665Z,14.63
2023-01-11T21:37:28.625Z,14.62
2023-01-11T21:40:20.110Z,14.61
2023-01-11T21:43:16.385Z,14.58
2023-01-11T21:45:46.010Z,14.52
2023-01-11T21:48:21.818Z,14.59
2023-01-11T21:50:52.984Z,14.54
2023-01-11T21:53:25.345Z,14.56
2023-01-11T21:55:55.190Z,14.58
2023-01-11T21:58:32.115Z,14.58
2023-01-11T22:01:00.455Z,14.54
2023-01-11T22:03:28.869Z,14.54
2023-01-11T22:06:01.799Z,14.70
2023-01-11T22:08:30.020Z,14.73
2023-01-11T22:11:00.989Z,14.78
2023-01-11T22:13:30.292Z,14.80
2023-01-11T22:16:01.755Z,14.79
2023-01-11T22:18:30.738Z,14.79
2023-01-11T22:21:04.891Z,14.87
2023-01-11T22:23:33.022Z,14.97
2023-01-11T22:26:05.835Z,14.87
2023-01-11T22:28:56.734Z,15.02
2023-01-11T22:31:27.561Z,15.00
2023-01-11T22:33:56.287Z,15.03
2023-01-11T22:36:25.949Z,15.02
2023-01-11T22:38:54.406Z,15.10
2023-01-11T22:41:25.013Z,15.16
2023-01-11T22:43:54.277Z,15.20
2023-01-11T22:46:24.155Z,15.28
2023-01-11T22:48:53.276Z,15.25
2023-01-11T22:51:22.661Z,15.28
2023-01-11T22:53:52.069Z,15.37
2023-01-11T22:56:22.267Z,15.40
2023-01-11T22:58:52.553Z,15.45
2023-01-11T23:01:22.371Z,15.45
2023-01-11T23:03:51.050Z,15.42
2023-01-11T23:06:21.219Z,15.43
2023-01-11T23:08:59.770Z,15.39
2023-01-11T23:14:48.001Z,15.17
2023-01-11T23:17:18.890Z,15.17
2023-01-11T23:19:47.225Z,15.22
2023-01-11T23:22:16.937Z,15.26
2023-01-11T23:24:45.050Z,15.17
2023-01-11T23:27:13.540Z,15.16
2023-01-11T23:29:48.082Z,15.24
2023-01-11T23:32:16.099Z,15.26
2023-01-11T23:34:47.294Z,15.18
2023-01-11T23:37:16.927Z,15.26
2023-01-11T23:39:44.909Z,15.32
2023-01-11T23:42:30.222Z,15.29
2023-01-11T23:44:59.905Z,15.23
2023-01-11T23:47:30.040Z,15.32
2023-01-11T23:50:01.618Z,15.30
2023-01-11T23:52:31.406Z,15.33
2023-01-11T23:54:59.940Z,15.36
2023-01-11T23:57:31.641Z,15.41
